Nearby METAR Reports

Actuele Vliegveldwaarnemingen NL (METAR).Zie KNMI uitleg METAR hier

EHAM - Amsterdam/Schiph, Netherlands
Distance from station: ONO 18km
Updated: 17/01/2019 01:55
Gedeeltelijk bewolkt
Gedeeltelijk bewolkt
 Wind van ZW
Wind: ZW 17 km/h
Temperatuur: 5°C
Wind Chill: 2°C
Dauwpunt: 4°C
Vochtigheid: 93%
Barometer: 1000 hPa
Clouds: Gedeeltelijk bewolkt
Visibility: 10 km
Cloud details: Few Clouds 518 m
Gedeeltelijk bewolkt 1067 m
2019/01/17 00:55 EHAM 170055Z 23009KT 9999 FEW017 SCT035 05/04 Q1000 NOSIG
EHKD - DE KOOY/DE KOOY
Updated: 17/01/2019 01:55
Gedeeltelijk bewolkt
Gedeeltelijk bewolkt
 Wind van W
Wind: W 35 km/h
Temperatuur: 6°C
Wind Chill: 1°C
Dauwpunt: 3°C
Vochtigheid: 81%
Barometer: 999 hPa
Clouds: Gedeeltelijk bewolkt
Visibility: 10 km
Cloud details: Few Clouds 549 m
Gedeeltelijk bewolkt 701 m
2019/01/17 00:55 EHKD 170055Z AUTO 26019KT 9999 FEW018 SCT023 06/03 Q0999 WHT
 
EHLW - LEEUWARDEN/LEEUWARDEN
Updated: 17/01/2019 01:55
Zwaar bewolkt
Zwaar bewolkt
 Wind van WZW
Wind: WZW 17 km/h
Temperatuur: 5°C
Wind Chill: 2°C
Dauwpunt: 3°C
Vochtigheid: 87%
Barometer: 997 hPa
Clouds: Zwaar bewolkt
Visibility: 10 km
Cloud details: Few Clouds 610 m
Zwaar bewolkt 5486 m
2019/01/17 00:55 EHLW 170055Z AUTO 24009KT 9999 FEW020 OVC180 05/03 Q0997 BLU
EHVK - VOLKEL/VOLKEL
Updated: 17/01/2019 01:55
Meestal bewolkt
Meestal bewolkt
 Wind van WZW
Wind: WZW 11 km/h
Temperatuur: 5°C
Wind Chill: 2°C
Dauwpunt: 3°C
Vochtigheid: 87%
Barometer: 1001 hPa
Clouds: Meestal bewolkt
Visibility: 10 km
Cloud details: Few Clouds 457 m
Meestal bewolkt 1554 m
Meestal bewolkt 2164 m
2019/01/17 00:55 EHVK 170055Z AUTO 24006KT 9999 FEW015CB BKN051 BKN071 05/03 Q1001 REDZ BLU
 
EHFS - VLISSINGEN
Updated: 17/01/2019 01:55
Gedeeltelijk bewolkt
Gedeeltelijk bewolkt
 Wind van W
Wind: W 26 km/h
Temperatuur: 7°C
Wind Chill: 3°C
Dauwpunt: 4°C
Vochtigheid: 81%
Barometer: 1002 hPa
Clouds: Gedeeltelijk bewolkt
Visibility: 10 km
2019/01/17 00:55 EHFS 170055Z AUTO 28014KT 9999 NSC 07/04 Q1002 W///H///
EHEH - EINDHOVEN/EINDHOVEN
Updated: 17/01/2019 01:55
Zwaar bewolkt
Zwaar bewolkt
 Wind van ZW
Wind: ZW 11 km/h
Temperatuur: 5°C
Wind Chill: 2°C
Dauwpunt: 4°C
Vochtigheid: 93%
Barometer: 1002 hPa
Clouds: Zwaar bewolkt
Visibility: 10 km
Cloud details: Few Clouds 457 m
Meestal bewolkt 762 m
Zwaar bewolkt 914 m
2019/01/17 00:55 EHEH 170055Z AUTO 23006KT 9999 FEW015CB BKN025 OVC030 05/04 Q1002 REDZ BLU
 
EHGR - GILZE-RIJEN/GILZE-RIJEN
Updated: 17/01/2019 01:55
Meestal bewolkt
Meestal bewolkt
 Wind van ZZW
Wind: ZZW 9 km/h
Temperatuur: 4°C
Wind Chill: 2°C
Dauwpunt: 4°C
Vochtigheid: 100%
Barometer: 1002 hPa
Clouds: Meestal bewolkt
Visibility: 10 km
Cloud details: Few Clouds 610 m
Gedeeltelijk bewolkt 2499 m
Meestal bewolkt 2713 m
2019/01/17 00:55 EHGR 170055Z AUTO 21005KT 9999 FEW020 SCT082 BKN089 04/04 Q1002 BLU
EHDL - ARNHEM/DEELEN
Updated: 17/01/2019 01:55
Meestal bewolkt
Meestal bewolkt
 Wind van ZW
Wind: ZW 13 km/h
Temperatuur: 4°C
Wind Chill: 1°C
Dauwpunt: 3°C
Vochtigheid: 93%
Barometer: 1001 hPa
Clouds: Meestal bewolkt
Visibility: 10 km
Cloud details: Few Clouds 762 m
Gedeeltelijk bewolkt 2713 m
Meestal bewolkt 2926 m
2019/01/17 00:55 EHDL 170055Z AUTO 23007KT 200V280 9999 FEW025 SCT089 BKN096 04/03 Q1001 BLU
 
EHBK - MAASTRICHT/MAASTRICHT-AACHEN
Updated: 17/01/2019 01:55
Lichte regen, Drizzle, Few clouds
Lichte regen, Drizzle, Few clouds
 Wind van ZW
Wind: ZW 26 km/h
Temperatuur: 5°C
Wind Chill: 1°C
Dauwpunt: 4°C
Vochtigheid: 93%
Barometer: 1003 hPa
Overzicht: Lichte regen, Drizzle
Clouds: Few Clouds
Visibility: 5 km
Cloud details: Gedeeltelijk bewolkt 122 m
Meestal bewolkt 183 m
Meestal bewolkt 213 m
Few Clouds 457 m
2019/01/17 00:55 EHBK 170055Z AUTO 22014KT 5000 -RADZ SCT004 BKN006 BKN007 FEW015CB 05/04 Q1003